sensor_id;sensor_type;location;lat;lon;timestamp;temperature;humidity
24772;DHT22;12870;52.274;9.754;2023-04-24T00:00:09;13.10;99.90
24772;DHT22;12870;52.274;9.754;2023-04-24T00:02:35;13.10;99.90
24772;DHT22;12870;52.274;9.754;2023-04-24T00:05:07;13.10;99.90
24772;DHT22;12870;52.274;9.754;2023-04-24T00:07:33;13.10;99.90
24772;DHT22;12870;52.274;9.754;2023-04-24T00:09:59;13.10;99.90
24772;DHT22;12870;52.274;9.754;2023-04-24T00:12:25;13.00;99.90
24772;DHT22;12870;52.274;9.754;2023-04-24T00:14:52;12.90;99.90
24772;DHT22;12870;52.274;9.754;2023-04-24T00:17:18;12.90;99.90
24772;DHT22;12870;52.274;9.754;2023-04-24T00:19:46;12.90;99.90
24772;DHT22;12870;52.274;9.754;2023-04-24T00:22:12;12.90;99.90
24772;DHT22;12870;52.274;9.754;2023-04-24T00:24:39;12.80;99.90
24772;DHT22;12870;52.274;9.754;2023-04-24T00:27:04;12.90;99.90
24772;DHT22;12870;52.274;9.754;2023-04-24T00:29:30;12.90;99.90
24772;DHT22;12870;52.274;9.754;2023-04-24T00:31:56;12.80;99.90
24772;DHT22;12870;52.274;9.754;2023-04-24T00:34:21;12.80;99.90
24772;DHT22;12870;52.274;9.754;2023-04-24T00:36:47;12.80;99.90
24772;DHT22;12870;52.274;9.754;2023-04-24T00:39:16;12.80;99.90
24772;DHT22;12870;52.274;9.754;2023-04-24T00:41:42;12.80;99.90
24772;DHT22;12870;52.274;9.754;2023-04-24T00:44:07;12.90;99.90
24772;DHT22;12870;52.274;9.754;2023-04-24T00:46:33;13.00;99.90
24772;DHT22;12870;52.274;9.754;2023-04-24T00:48:59;13.00;99.90
24772;DHT22;12870;52.274;9.754;2023-04-24T00:51:25;13.00;99.90
24772;DHT22;12870;52.274;9.754;2023-04-24T00:53:51;13.00;99.90
24772;DHT22;12870;52.274;9.754;2023-04-24T00:56:17;12.90;99.90
24772;DHT22;12870;52.274;9.754;2023-04-24T00:58:44;12.90;99.90
24772;DHT22;12870;52.274;9.754;2023-04-24T01:01:10;13.00;99.90
24772;DHT22;12870;52.274;9.754;2023-04-24T01:03:37;13.00;99.90
24772;DHT22;12870;52.274;9.754;2023-04-24T01:06:04;12.90;99.90
24772;DHT22;12870;52.274;9.754;2023-04-24T01:08:30;12.90;99.90
24772;DHT22;12870;52.274;9.754;2023-04-24T01:10:57;12.90;99.90
24772;DHT22;12870;52.274;9.754;2023-04-24T01:13:22;12.80;99.90
24772;DHT22;12870;52.274;9.754;2023-04-24T01:15:49;12.80;99.90
24772;DHT22;12870;52.274;9.754;2023-04-24T01:18:15;12.80;99.90
24772;DHT22;12870;52.274;9.754;2023-04-24T01:20:42;12.70;99.90
24772;DHT22;12870;52.274;9.754;2023-04-24T01:23:09;12.60;99.90
24772;DHT22;12870;52.274;9.754;2023-04-24T01:25:35;12.60;99.90
24772;DHT22;12870;52.274;9.754;2023-04-24T01:28:02;12.60;99.90
24772;DHT22;12870;52.274;9.754;2023-04-24T01:30:28;12.50;99.90
24772;DHT22;12870;52.274;9.754;2023-04-24T01:32:53;12.50;99.90
24772;DHT22;12870;52.274;9.754;2023-04-24T01:35:20;12.50;99.90
24772;DHT22;12870;52.274;9.754;2023-04-24T01:37:46;12.40;99.90
24772;DHT22;12870;52.274;9.754;2023-04-24T01:40:12;12.20;99.90
24772;DHT22;12870;52.274;9.754;2023-04-24T01:42:38;12.20;99.90
24772;DHT22;12870;52.274;9.754;2023-04-24T01:45:04;12.00;99.90
24772;DHT22;12870;52.274;9.754;2023-04-24T01:47:31;12.00;99.90
24772;DHT22;12870;52.274;9.754;2023-04-24T01:49:58;11.90;99.90
24772;DHT22;12870;52.274;9.754;2023-04-24T01:52:23;11.80;99.90
24772;DHT22;12870;52.274;9.754;2023-04-24T01:54:50;11.70;99.90
24772;DHT22;12870;52.274;9.754;2023-04-24T01:57:16;11.70;99.90
24772;DHT22;12870;52.274;9.754;2023-04-24T01:59:42;11.60;99.90
24772;DHT22;12870;52.274;9.754;2023-04-24T02:02:08;11.60;99.90
24772;DHT22;12870;52.274;9.754;2023-04-24T02:04:33;11.70;99.90
24772;DHT22;12870;52.274;9.754;2023-04-24T02:06:59;11.70;99.90
24772;DHT22;12870;52.274;9.754;2023-04-24T02:09:25;11.60;99.90
24772;DHT22;12870;52.274;9.754;2023-04-24T02:11:51;11.70;99.90
24772;DHT22;12870;52.274;9.754;2023-04-24T02:14:16;11.60;99.90
24772;DHT22;12870;52.274;9.754;2023-04-24T02:16:42;11.50;99.90
24772;DHT22;12870;52.274;9.754;2023-04-24T02:19:09;11.50;99.90
24772;DHT22;12870;52.274;9.754;2023-04-24T02:21:35;11.40;99.90
24772;DHT22;12870;52.274;9.754;2023-04-24T02:24:01;11.40;99.90
24772;DHT22;12870;52.274;9.754;2023-04-24T02:26:26;11.40;99.90
24772;DHT22;12870;52.274;9.754;2023-04-24T02:28:52;11.40;99.90
24772;DHT22;12870;52.274;9.754;2023-04-24T02:31:18;11.50;99.90
24772;DHT22;12870;52.274;9.754;2023-04-24T02:33:43;11.50;99.90
24772;DHT22;12870;52.274;9.754;2023-04-24T02:36:09;11.50;99.90
24772;DHT22;12870;52.274;9.754;2023-04-24T02:38:35;11.50;99.90
24772;DHT22;12870;52.274;9.754;2023-04-24T02:41:00;11.50;99.90
24772;DHT22;12870;52.274;9.754;2023-04-24T02:43:27;11.50;99.90
24772;DHT22;12870;52.274;9.754;2023-04-24T02:45:53;11.40;99.90
24772;DHT22;12870;52.274;9.754;2023-04-24T02:48:19;11.40;99.90
24772;DHT22;12870;52.274;9.754;2023-04-24T02:50:46;11.40;99.90
24772;DHT22;12870;52.274;9.754;2023-04-24T02:53:12;11.40;99.90
24772;DHT22;12870;52.274;9.754;2023-04-24T02:55:38;11.40;99.90
24772;DHT22;12870;52.274;9.754;2023-04-24T02:58:03;11.30;99.90
24772;DHT22;12870;52.274;9.754;2023-04-24T03:00:29;11.30;99.90
24772;DHT22;12870;52.274;9.754;2023-04-24T03:02:55;11.40;99.90
24772;DHT22;12870;52.274;9.754;2023-04-24T03:05:21;11.40;99.90
24772;DHT22;12870;52.274;9.754;2023-04-24T03:07:46;11.30;99.90
24772;DHT22;12870;52.274;9.754;2023-04-24T03:10:12;11.30;99.90
24772;DHT22;12870;52.274;9.754;2023-04-24T03:12:38;11.30;99.90
24772;DHT22;12870;52.274;9.754;2023-04-24T03:15:04;11.30;99.90
24772;DHT22;12870;52.274;9.754;2023-04-24T03:17:30;11.30;99.90
24772;DHT22;12870;52.274;9.754;2023-04-24T03:19:55;11.30;99.90
24772;DHT22;12870;52.274;9.754;2023-04-24T03:22:21;11.30;99.90
24772;DHT22;12870;52.274;9.754;2023-04-24T03:24:47;11.30;99.90
24772;DHT22;12870;52.274;9.754;2023-04-24T03:27:12;11.20;99.90
24772;DHT22;12870;52.274;9.754;2023-04-24T03:29:38;11.10;99.90
24772;DHT22;12870;52.274;9.754;2023-04-24T03:32:04;11.00;99.90
24772;DHT22;12870;52.274;9.754;2023-04-24T03:34:29;10.90;99.90
24772;DHT22;12870;52.274;9.754;2023-04-24T03:36:55;10.70;99.90
24772;DHT22;12870;52.274;9.754;2023-04-24T03:39:20;10.60;99.90
24772;DHT22;12870;52.274;9.754;2023-04-24T03:41:46;10.50;99.90
24772;DHT22;12870;52.274;9.754;2023-04-24T03:44:12;10.50;99.90
24772;DHT22;12870;52.274;9.754;2023-04-24T03:46:37;10.30;99.90
24772;DHT22;12870;52.274;9.754;2023-04-24T03:49:03;10.30;99.90
24772;DHT22;12870;52.274;9.754;2023-04-24T03:51:28;10.20;99.90
24772;DHT22;12870;52.274;9.754;2023-04-24T03:53:56;10.10;99.90
24772;DHT22;12870;52.274;9.754;2023-04-24T03:56:22;10.10;99.90
24772;DHT22;12870;52.274;9.754;2023-04-24T03:58:48;10.10;99.90
24772;DHT22;12870;52.274;9.754;2023-04-24T04:01:13;10.00;99.90
24772;DHT22;12870;52.274;9.754;2023-04-24T04:03:41;10.00;99.90
24772;DHT22;12870;52.274;9.754;2023-04-24T04:06:07;9.90;99.90
24772;DHT22;12870;52.274;9.754;2023-04-24T04:08:33;9.90;99.90
24772;DHT22;12870;52.274;9.754;2023-04-24T04:10:58;9.90;99.90
24772;DHT22;12870;52.274;9.754;2023-04-24T04:13:24;9.90;99.90
24772;DHT22;12870;52.274;9.754;2023-04-24T04:15:50;10.00;99.90
24772;DHT22;12870;52.274;9.754;2023-04-24T04:18:15;10.10;99.90
24772;DHT22;12870;52.274;9.754;2023-04-24T04:20:41;10.10;99.90
24772;DHT22;12870;52.274;9.754;2023-04-24T04:23:07;10.20;99.90
24772;DHT22;12870;52.274;9.754;2023-04-24T04:25:33;10.20;99.90
24772;DHT22;12870;52.274;9.754;2023-04-24T04:27:58;10.30;99.90
24772;DHT22;12870;52.274;9.754;2023-04-24T04:30:25;10.30;99.90
24772;DHT22;12870;52.274;9.754;2023-04-24T04:32:51;10.30;99.90
24772;DHT22;12870;52.274;9.754;2023-04-24T04:35:17;10.30;99.90
24772;DHT22;12870;52.274;9.754;2023-04-24T04:37:43;10.40;99.90
24772;DHT22;12870;52.274;9.754;2023-04-24T04:40:08;10.40;99.90
24772;DHT22;12870;52.274;9.754;2023-04-24T04:42:37;10.40;99.90
24772;DHT22;12870;52.274;9.754;2023-04-24T04:45:09;10.40;99.90
24772;DHT22;12870;52.274;9.754;2023-04-24T04:47:36;10.40;99.90
24772;DHT22;12870;52.274;9.754;2023-04-24T04:50:02;10.50;99.90
24772;DHT22;12870;52.274;9.754;2023-04-24T04:52:29;10.50;99.90
24772;DHT22;12870;52.274;9.754;2023-04-24T04:54:55;10.50;99.90
24772;DHT22;12870;52.274;9.754;2023-04-24T04:57:20;10.60;99.90
24772;DHT22;12870;52.274;9.754;2023-04-24T04:59:46;10.60;99.90
24772;DHT22;12870;52.274;9.754;2023-04-24T05:02:12;10.70;99.90
24772;DHT22;12870;52.274;9.754;2023-04-24T05:04:38;10.70;99.90
24772;DHT22;12870;52.274;9.754;2023-04-24T05:07:03;10.80;99.90
24772;DHT22;12870;52.274;9.754;2023-04-24T05:09:29;10.80;99.90
24772;DHT22;12870;52.274;9.754;2023-04-24T05:11:55;10.90;99.90
24772;DHT22;12870;52.274;9.754;2023-04-24T05:14:21;11.00;99.90
24772;DHT22;12870;52.274;9.754;2023-04-24T05:16:47;11.10;99.90
24772;DHT22;12870;52.274;9.754;2023-04-24T05:19:13;11.10;99.90
24772;DHT22;12870;52.274;9.754;2023-04-24T05:21:40;11.20;99.90
24772;DHT22;12870;52.274;9.754;2023-04-24T05:24:06;11.20;99.90
24772;DHT22;12870;52.274;9.754;2023-04-24T05:26:32;11.30;99.90
24772;DHT22;12870;52.274;9.754;2023-04-24T05:28:58;11.30;99.90
24772;DHT22;12870;52.274;9.754;2023-04-24T05:31:24;11.40;99.90
24772;DHT22;12870;52.274;9.754;2023-04-24T05:33:50;11.50;99.90
24772;DHT22;12870;52.274;9.754;2023-04-24T05:36:16;11.60;99.90
24772;DHT22;12870;52.274;9.754;2023-04-24T05:38:42;11.70;99.90
24772;DHT22;12870;52.274;9.754;2023-04-24T05:41:07;11.90;99.90
24772;DHT22;12870;52.274;9.754;2023-04-24T05:43:33;11.90;99.90
24772;DHT22;12870;52.274;9.754;2023-04-24T05:45:58;12.00;99.90
24772;DHT22;12870;52.274;9.754;2023-04-24T05:48:24;12.00;99.90
24772;DHT22;12870;52.274;9.754;2023-04-24T05:50:50;12.00;99.90
24772;DHT22;12870;52.274;9.754;2023-04-24T05:53:18;12.00;99.90
24772;DHT22;12870;52.274;9.754;2023-04-24T05:55:44;11.90;99.90
24772;DHT22;12870;52.274;9.754;2023-04-24T05:58:10;11.80;99.90
24772;DHT22;12870;52.274;9.754;2023-04-24T06:00:36;11.70;99.90
24772;DHT22;12870;52.274;9.754;2023-04-24T06:03:01;11.60;99.90
24772;DHT22;12870;52.274;9.754;2023-04-24T06:05:29;11.60;99.90
24772;DHT22;12870;52.274;9.754;2023-04-24T06:07:55;11.50;99.90
24772;DHT22;12870;52.274;9.754;2023-04-24T06:10:21;11.40;99.90
24772;DHT22;12870;52.274;9.754;2023-04-24T06:12:46;11.40;99.90
24772;DHT22;12870;52.274;9.754;2023-04-24T06:15:12;11.40;99.90
24772;DHT22;12870;52.274;9.754;2023-04-24T06:17:38;11.30;99.90
24772;DHT22;12870;52.274;9.754;2023-04-24T06:20:04;11.30;99.90
24772;DHT22;12870;52.274;9.754;2023-04-24T06:22:31;11.40;99.90
24772;DHT22;12870;52.274;9.754;2023-04-24T06:24:57;11.40;99.90
24772;DHT22;12870;52.274;9.754;2023-04-24T06:27:22;11.40;99.90
24772;DHT22;12870;52.274;9.754;2023-04-24T06:29:48;11.50;99.90
24772;DHT22;12870;52.274;9.754;2023-04-24T06:32:21;11.50;99.90
24772;DHT22;12870;52.274;9.754;2023-04-24T06:34:47;11.60;99.90
24772;DHT22;12870;52.274;9.754;2023-04-24T06:37:13;11.70;99.90
24772;DHT22;12870;52.274;9.754;2023-04-24T06:39:39;11.70;99.90
24772;DHT22;12870;52.274;9.754;2023-04-24T06:42:05;11.80;99.90
24772;DHT22;12870;52.274;9.754;2023-04-24T06:44:31;11.90;99.90
24772;DHT22;12870;52.274;9.754;2023-04-24T06:46:56;11.90;99.90
24772;DHT22;12870;52.274;9.754;2023-04-24T06:49:22;11.90;99.90
24772;DHT22;12870;52.274;9.754;2023-04-24T06:51:47;11.90;99.90
24772;DHT22;12870;52.274;9.754;2023-04-24T06:54:13;11.80;99.90
24772;DHT22;12870;52.274;9.754;2023-04-24T06:56:39;11.90;99.90
24772;DHT22;12870;52.274;9.754;2023-04-24T06:59:04;11.80;99.90
24772;DHT22;12870;52.274;9.754;2023-04-24T07:01:30;11.70;99.90
24772;DHT22;12870;52.274;9.754;2023-04-24T07:03:55;11.50;99.90
24772;DHT22;12870;52.274;9.754;2023-04-24T07:06:21;11.40;99.90
24772;DHT22;12870;52.274;9.754;2023-04-24T07:08:48;11.30;99.90
24772;DHT22;12870;52.274;9.754;2023-04-24T07:11:14;11.30;99.90
24772;DHT22;12870;52.274;9.754;2023-04-24T07:13:39;11.30;99.90
24772;DHT22;12870;52.274;9.754;2023-04-24T07:16:07;11.30;99.90
24772;DHT22;12870;52.274;9.754;2023-04-24T07:18:34;11.40;99.90
24772;DHT22;12870;52.274;9.754;2023-04-24T07:20:59;11.40;99.90
24772;DHT22;12870;52.274;9.754;2023-04-24T07:23:26;11.50;99.90
24772;DHT22;12870;52.274;9.754;2023-04-24T07:25:51;11.60;99.90
24772;DHT22;12870;52.274;9.754;2023-04-24T07:28:17;11.70;99.90
24772;DHT22;12870;52.274;9.754;2023-04-24T07:30:43;11.70;99.90
24772;DHT22;12870;52.274;9.754;2023-04-24T07:33:09;11.90;99.90
24772;DHT22;12870;52.274;9.754;2023-04-24T07:35:36;12.00;99.90
24772;DHT22;12870;52.274;9.754;2023-04-24T07:38:02;12.20;99.90
24772;DHT22;12870;52.274;9.754;2023-04-24T07:40:28;12.30;99.90
24772;DHT22;12870;52.274;9.754;2023-04-24T07:42:53;12.40;99.90
24772;DHT22;12870;52.274;9.754;2023-04-24T07:45:19;12.30;99.90
24772;DHT22;12870;52.274;9.754;2023-04-24T07:47:45;12.30;99.90
24772;DHT22;12870;52.274;9.754;2023-04-24T07:50:12;12.50;99.90
24772;DHT22;12870;52.274;9.754;2023-04-24T07:52:38;12.60;99.90
24772;DHT22;12870;52.274;9.754;2023-04-24T07:55:04;12.60;99.90
24772;DHT22;12870;52.274;9.754;2023-04-24T07:57:30;12.40;99.90
24772;DHT22;12870;52.274;9.754;2023-04-24T07:59:56;12.40;99.90
24772;DHT22;12870;52.274;9.754;2023-04-24T08:02:21;12.50;99.90
24772;DHT22;12870;52.274;9.754;2023-04-24T08:04:52;12.80;99.90
24772;DHT22;12870;52.274;9.754;2023-04-24T08:07:19;13.00;99.90
24772;DHT22;12870;52.274;9.754;2023-04-24T08:09:45;13.00;99.90
24772;DHT22;12870;52.274;9.754;2023-04-24T08:12:10;12.90;99.90
24772;DHT22;12870;52.274;9.754;2023-04-24T08:14:36;12.80;99.90
24772;DHT22;12870;52.274;9.754;2023-04-24T08:17:02;12.70;99.90
24772;DHT22;12870;52.274;9.754;2023-04-24T08:19:28;12.90;99.90
24772;DHT22;12870;52.274;9.754;2023-04-24T08:21:54;12.90;99.90
24772;DHT22;12870;52.274;9.754;2023-04-24T08:24:20;12.90;99.90
24772;DHT22;12870;52.274;9.754;2023-04-24T08:26:46;13.00;99.90
24772;DHT22;12870;52.274;9.754;2023-04-24T08:29:15;13.00;99.90
24772;DHT22;12870;52.274;9.754;2023-04-24T08:31:41;13.00;99.90
24772;DHT22;12870;52.274;9.754;2023-04-24T08:34:07;12.90;99.90
24772;DHT22;12870;52.274;9.754;2023-04-24T08:36:32;13.00;99.90
24772;DHT22;12870;52.274;9.754;2023-04-24T08:38:58;12.80;99.90
24772;DHT22;12870;52.274;9.754;2023-04-24T08:41:24;12.90;99.90
24772;DHT22;12870;52.274;9.754;2023-04-24T08:43:51;13.10;99.90
24772;DHT22;12870;52.274;9.754;2023-04-24T08:46:18;13.30;99.90
24772;DHT22;12870;52.274;9.754;2023-04-24T08:48:45;13.50;99.90
24772;DHT22;12870;52.274;9.754;2023-04-24T08:51:11;13.50;99.90
24772;DHT22;12870;52.274;9.754;2023-04-24T08:53:37;13.30;99.90
24772;DHT22;12870;52.274;9.754;2023-04-24T08:56:03;13.20;99.90
24772;DHT22;12870;52.274;9.754;2023-04-24T08:58:29;12.80;99.90
24772;DHT22;12870;52.274;9.754;2023-04-24T09:00:56;12.80;99.90
24772;DHT22;12870;52.274;9.754;2023-04-24T09:03:23;12.80;99.90
24772;DHT22;12870;52.274;9.754;2023-04-24T09:05:49;12.80;99.90
24772;DHT22;12870;52.274;9.754;2023-04-24T09:08:17;12.90;99.90
24772;DHT22;12870;52.274;9.754;2023-04-24T09:10:43;13.20;99.90
24772;DHT22;12870;52.274;9.754;2023-04-24T09:13:10;13.60;99.90
24772;DHT22;12870;52.274;9.754;2023-04-24T09:15:37;13.70;99.90
24772;DHT22;12870;52.274;9.754;2023-04-24T09:18:04;13.60;99.90
24772;DHT22;12870;52.274;9.754;2023-04-24T09:20:30;13.60;99.90
24772;DHT22;12870;52.274;9.754;2023-04-24T09:22:59;13.60;99.90
24772;DHT22;12870;52.274;9.754;2023-04-24T09:25:32;13.50;99.90
24772;DHT22;12870;52.274;9.754;2023-04-24T09:28:04;13.60;99.90
24772;DHT22;12870;52.274;9.754;2023-04-24T09:30:30;13.80;99.90
24772;DHT22;12870;52.274;9.754;2023-04-24T09:33:15;13.80;99.90
24772;DHT22;12870;52.274;9.754;2023-04-24T09:35:51;13.80;99.90
24772;DHT22;12870;52.274;9.754;2023-04-24T09:38:17;13.90;99.90
24772;DHT22;12870;52.274;9.754;2023-04-24T09:40:43;14.10;99.90
24772;DHT22;12870;52.274;9.754;2023-04-24T09:43:12;14.50;99.90
24772;DHT22;12870;52.274;9.754;2023-04-24T09:45:39;14.70;99.90
24772;DHT22;12870;52.274;9.754;2023-04-24T09:48:05;14.80;99.90
24772;DHT22;12870;52.274;9.754;2023-04-24T09:50:33;14.80;99.90
24772;DHT22;12870;52.274;9.754;2023-04-24T09:53:02;14.50;99.90
24772;DHT22;12870;52.274;9.754;2023-04-24T09:55:29;14.40;99.90
24772;DHT22;12870;52.274;9.754;2023-04-24T09:57:59;14.00;99.90
24772;DHT22;12870;52.274;9.754;2023-04-24T10:00:32;13.60;99.90
24772;DHT22;12870;52.274;9.754;2023-04-24T10:02:59;13.30;99.90
24772;DHT22;12870;52.274;9.754;2023-04-24T10:05:33;13.10;99.90
24772;DHT22;12870;52.274;9.754;2023-04-24T10:08:07;13.10;99.90
24772;DHT22;12870;52.274;9.754;2023-04-24T10:10:34;13.20;99.90
24772;DHT22;12870;52.274;9.754;2023-04-24T10:13:00;13.40;99.90
24772;DHT22;12870;52.274;9.754;2023-04-24T10:15:27;13.70;99.90
24772;DHT22;12870;52.274;9.754;2023-04-24T10:17:53;14.50;99.90
24772;DHT22;12870;52.274;9.754;2023-04-24T10:20:24;15.50;99.90
24772;DHT22;12870;52.274;9.754;2023-04-24T10:22:52;16.40;99.90
24772;DHT22;12870;52.274;9.754;2023-04-24T10:25:19;15.90;99.90
24772;DHT22;12870;52.274;9.754;2023-04-24T10:27:46;15.60;99.90
24772;DHT22;12870;52.274;9.754;2023-04-24T10:30:13;14.90;99.90
24772;DHT22;12870;52.274;9.754;2023-04-24T10:32:39;14.50;99.90
24772;DHT22;12870;52.274;9.754;2023-04-24T10:35:07;14.20;99.90
24772;DHT22;12870;52.274;9.754;2023-04-24T10:37:51;14.20;99.90
24772;DHT22;12870;52.274;9.754;2023-04-24T10:40:19;14.00;99.90
24772;DHT22;12870;52.274;9.754;2023-04-24T10:42:52;13.90;99.90
24772;DHT22;12870;52.274;9.754;2023-04-24T10:45:21;13.80;99.90
24772;DHT22;12870;52.274;9.754;2023-04-24T10:47:58;13.80;99.90
24772;DHT22;12870;52.274;9.754;2023-04-24T10:50:27;13.90;99.90
24772;DHT22;12870;52.274;9.754;2023-04-24T10:53:11;14.00;99.90
24772;DHT22;12870;52.274;9.754;2023-04-24T10:55:51;14.00;99.90
24772;DHT22;12870;52.274;9.754;2023-04-24T10:58:22;13.90;99.90
24772;DHT22;12870;52.274;9.754;2023-04-24T11:00:59;13.90;99.90
24772;DHT22;12870;52.274;9.754;2023-04-24T11:03:28;13.80;99.90
24772;DHT22;12870;52.274;9.754;2023-04-24T11:05:57;13.70;99.90
24772;DHT22;12870;52.274;9.754;2023-04-24T11:08:29;13.50;99.90
24772;DHT22;12870;52.274;9.754;2023-04-24T11:13:23;13.20;99.90
24772;DHT22;12870;52.274;9.754;2023-04-24T11:16:21;13.20;99.90
24772;DHT22;12870;52.274;9.754;2023-04-24T11:24:30;13.90;99.90
24772;DHT22;12870;52.274;9.754;2023-04-24T11:29:42;13.80;99.90
24772;DHT22;12870;52.274;9.754;2023-04-24T11:32:16;13.80;99.90
24772;DHT22;12870;52.274;9.754;2023-04-24T11:34:49;13.70;99.90
24772;DHT22;12870;52.274;9.754;2023-04-24T11:37:16;13.80;99.90
24772;DHT22;12870;52.274;9.754;2023-04-24T11:39:41;13.90;99.90
24772;DHT22;12870;52.274;9.754;2023-04-24T11:42:09;14.10;99.90
24772;DHT22;12870;52.274;9.754;2023-04-24T11:44:35;14.50;99.90
24772;DHT22;12870;52.274;9.754;2023-04-24T11:47:05;14.50;99.90
24772;DHT22;12870;52.274;9.754;2023-04-24T11:49:31;14.40;99.90
24772;DHT22;12870;52.274;9.754;2023-04-24T11:51:56;14.30;99.90
24772;DHT22;12870;52.274;9.754;2023-04-24T11:54:22;14.20;99.90
24772;DHT22;12870;52.274;9.754;2023-04-24T11:56:49;13.90;99.90
24772;DHT22;12870;52.274;9.754;2023-04-24T11:59:15;13.70;99.90
24772;DHT22;12870;52.274;9.754;2023-04-24T12:01:47;13.30;99.90
24772;DHT22;12870;52.274;9.754;2023-04-24T12:04:15;13.20;99.90
24772;DHT22;12870;52.274;9.754;2023-04-24T12:06:59;13.20;99.90
24772;DHT22;12870;52.274;9.754;2023-04-24T12:09:25;13.30;99.90
24772;DHT22;12870;52.274;9.754;2023-04-24T12:11:55;13.10;99.90
24772;DHT22;12870;52.274;9.754;2023-04-24T12:14:22;12.80;99.90
24772;DHT22;12870;52.274;9.754;2023-04-24T12:16:49;12.60;99.90
24772;DHT22;12870;52.274;9.754;2023-04-24T12:19:23;12.40;99.90
24772;DHT22;12870;52.274;9.754;2023-04-24T12:22:03;12.20;99.90
24772;DHT22;12870;52.274;9.754;2023-04-24T12:24:30;12.00;99.90
24772;DHT22;12870;52.274;9.754;2023-04-24T12:26:56;12.00;99.90
24772;DHT22;12870;52.274;9.754;2023-04-24T12:29:23;11.80;99.90
24772;DHT22;12870;52.274;9.754;2023-04-24T12:31:50;11.80;99.90
24772;DHT22;12870;52.274;9.754;2023-04-24T12:34:24;12.00;99.90
24772;DHT22;12870;52.274;9.754;2023-04-24T12:36:50;12.10;99.90
24772;DHT22;12870;52.274;9.754;2023-04-24T12:39:18;12.20;99.90
24772;DHT22;12870;52.274;9.754;2023-04-24T12:41:56;12.50;99.90
24772;DHT22;12870;52.274;9.754;2023-04-24T12:44:32;12.70;99.90
24772;DHT22;12870;52.274;9.754;2023-04-24T12:47:00;12.70;99.90
24772;DHT22;12870;52.274;9.754;2023-04-24T12:49:27;13.10;99.90
24772;DHT22;12870;52.274;9.754;2023-04-24T12:51:53;13.60;99.90
24772;DHT22;12870;52.274;9.754;2023-04-24T12:54:19;13.50;99.90
24772;DHT22;12870;52.274;9.754;2023-04-24T12:56:45;13.40;99.90
24772;DHT22;12870;52.274;9.754;2023-04-24T12:59:10;13.00;99.90
24772;DHT22;12870;52.274;9.754;2023-04-24T13:01:36;12.80;99.90
24772;DHT22;12870;52.274;9.754;2023-04-24T13:04:02;12.60;99.90
24772;DHT22;12870;52.274;9.754;2023-04-24T13:06:27;12.30;99.90
24772;DHT22;12870;52.274;9.754;2023-04-24T13:08:53;11.90;99.90
24772;DHT22;12870;52.274;9.754;2023-04-24T13:11:20;11.60;99.90
24772;DHT22;12870;52.274;9.754;2023-04-24T13:13:47;11.40;99.90
24772;DHT22;12870;52.274;9.754;2023-04-24T13:16:13;11.30;99.90
24772;DHT22;12870;52.274;9.754;2023-04-24T13:18:38;11.10;99.90
24772;DHT22;12870;52.274;9.754;2023-04-24T13:21:04;11.10;99.90
24772;DHT22;12870;52.274;9.754;2023-04-24T13:23:30;11.10;99.90
24772;DHT22;12870;52.274;9.754;2023-04-24T13:25:56;11.00;99.90
24772;DHT22;12870;52.274;9.754;2023-04-24T13:28:24;11.00;99.90
24772;DHT22;12870;52.274;9.754;2023-04-24T13:30:50;11.20;99.90
24772;DHT22;12870;52.274;9.754;2023-04-24T13:33:16;11.10;99.90
24772;DHT22;12870;52.274;9.754;2023-04-24T13:35:42;11.20;99.90
24772;DHT22;12870;52.274;9.754;2023-04-24T13:38:07;11.40;99.90
24772;DHT22;12870;52.274;9.754;2023-04-24T13:40:33;11.60;99.90
24772;DHT22;12870;52.274;9.754;2023-04-24T13:42:59;11.60;99.90
24772;DHT22;12870;52.274;9.754;2023-04-24T13:45:26;11.40;99.90
24772;DHT22;12870;52.274;9.754;2023-04-24T13:47:52;11.50;99.90
24772;DHT22;12870;52.274;9.754;2023-04-24T13:50:19;11.10;99.90
24772;DHT22;12870;52.274;9.754;2023-04-24T13:52:45;10.90;99.90
24772;DHT22;12870;52.274;9.754;2023-04-24T13:55:11;10.70;99.90
24772;DHT22;12870;52.274;9.754;2023-04-24T13:57:36;10.20;99.90
24772;DHT22;12870;52.274;9.754;2023-04-24T14:00:02;10.10;99.90
24772;DHT22;12870;52.274;9.754;2023-04-24T14:02:29;10.00;99.90
24772;DHT22;12870;52.274;9.754;2023-04-24T14:04:55;10.00;99.90
24772;DHT22;12870;52.274;9.754;2023-04-24T14:07:21;9.90;99.90
24772;DHT22;12870;52.274;9.754;2023-04-24T14:09:46;9.80;99.90
24772;DHT22;12870;52.274;9.754;2023-04-24T14:12:12;9.80;99.90
24772;DHT22;12870;52.274;9.754;2023-04-24T14:14:39;10.00;99.90
24772;DHT22;12870;52.274;9.754;2023-04-24T14:17:05;9.90;99.90
24772;DHT22;12870;52.274;9.754;2023-04-24T14:19:31;10.00;99.90
24772;DHT22;12870;52.274;9.754;2023-04-24T14:21:57;10.20;99.90
24772;DHT22;12870;52.274;9.754;2023-04-24T14:24:23;10.10;99.90
24772;DHT22;12870;52.274;9.754;2023-04-24T14:26:49;10.20;99.90
24772;DHT22;12870;52.274;9.754;2023-04-24T14:29:15;10.20;99.90
24772;DHT22;12870;52.274;9.754;2023-04-24T14:31:42;10.20;99.90
24772;DHT22;12870;52.274;9.754;2023-04-24T14:34:08;10.10;99.90
24772;DHT22;12870;52.274;9.754;2023-04-24T14:36:33;9.90;99.90
24772;DHT22;12870;52.274;9.754;2023-04-24T14:38:59;9.90;99.90
24772;DHT22;12870;52.274;9.754;2023-04-24T14:41:25;9.80;99.90
24772;DHT22;12870;52.274;9.754;2023-04-24T14:43:50;9.60;99.90
24772;DHT22;12870;52.274;9.754;2023-04-24T14:46:16;9.40;99.90
24772;DHT22;12870;52.274;9.754;2023-04-24T14:48:41;9.50;99.90
24772;DHT22;12870;52.274;9.754;2023-04-24T14:51:07;9.60;99.90
24772;DHT22;12870;52.274;9.754;2023-04-24T14:53:34;9.60;99.90
24772;DHT22;12870;52.274;9.754;2023-04-24T14:55:59;9.70;99.90
24772;DHT22;12870;52.274;9.754;2023-04-24T14:58:25;9.70;99.90
24772;DHT22;12870;52.274;9.754;2023-04-24T15:00:51;9.80;99.90
24772;DHT22;12870;52.274;9.754;2023-04-24T15:03:19;9.80;99.90
24772;DHT22;12870;52.274;9.754;2023-04-24T15:05:46;9.90;99.90
24772;DHT22;12870;52.274;9.754;2023-04-24T15:08:12;9.90;99.90
24772;DHT22;12870;52.274;9.754;2023-04-24T15:10:38;10.00;99.90
24772;DHT22;12870;52.274;9.754;2023-04-24T15:13:03;10.00;99.90
24772;DHT22;12870;52.274;9.754;2023-04-24T15:15:30;9.90;99.90
24772;DHT22;12870;52.274;9.754;2023-04-24T15:17:56;9.80;99.90
24772;DHT22;12870;52.274;9.754;2023-04-24T15:20:22;9.90;99.90
24772;DHT22;12870;52.274;9.754;2023-04-24T15:22:47;9.90;99.90
24772;DHT22;12870;52.274;9.754;2023-04-24T15:25:13;9.90;99.90
24772;DHT22;12870;52.274;9.754;2023-04-24T15:27:45;10.00;99.90
24772;DHT22;12870;52.274;9.754;2023-04-24T15:30:12;10.20;99.90
24772;DHT22;12870;52.274;9.754;2023-04-24T15:32:38;10.20;99.90
24772;DHT22;12870;52.274;9.754;2023-04-24T15:35:04;10.30;99.90
24772;DHT22;12870;52.274;9.754;2023-04-24T15:37:31;10.40;99.90
24772;DHT22;12870;52.274;9.754;2023-04-24T15:39:56;10.40;99.90